Time;durP1;ratioP1;P1;durP2;ratioP2;P2;SDS_P1;SDS_P2;PMS_P1;PMS_P2;Temp;Humidity;BMP_temperature;BMP_pressure;BME280_temperature;BME280_humidity;BME280_pressure;Samples;Min_cycle;Max_cycle;Signal;HPM_P1;HPM_P2
2022/10/06 00:02:18;;;;;;;;;4.00;0.75;;;;;;;;5071904;28;45422;-80
2022/10/06 00:04:43;;;;;;;;;0.67;0.67;;;;;;;;5072197;28;45524;-80
2022/10/06 00:07:08;;;;;;;;;1.67;1.00;;;;;;;;5071485;28;45939;-77
2022/10/06 00:09:34;;;;;;;;;5.00;0.00;;;;;;;;5072068;28;45517;-75
2022/10/06 00:11:59;;;;;;;;;0.00;0.00;;;;;;;;5051365;28;47533;-78
2022/10/06 00:14:24;;;;;;;;;3.33;1.00;;;;;;;;5065219;28;46002;-79
2022/10/06 00:16:50;;;;;;;;;2.33;0.33;;;;;;;;5054844;28;45688;-80
2022/10/06 00:19:15;;;;;;;;;2.00;1.00;;;;;;;;5067994;28;45463;-76
2022/10/06 00:21:40;;;;;;;;;1.00;1.00;;;;;;;;5072325;28;45717;-79
2022/10/06 00:24:06;;;;;;;;;1.25;0.25;;;;;;;;5077451;28;45823;-79
2022/10/06 00:26:31;;;;;;;;;1.00;1.00;;;;;;;;5062129;28;45518;-79
2022/10/06 00:28:57;;;;;;;;;0.67;0.67;;;;;;;;5037230;28;45463;-76
2022/10/06 00:31:22;;;;;;;;;2.00;1.00;;;;;;;;5053236;28;46853;-75
2022/10/06 00:33:48;;;;;;;;;3.33;1.00;;;;;;;;5041670;28;45736;-75
2022/10/06 00:36:13;;;;;;;;;3.00;1.00;;;;;;;;5063093;28;45376;-81
2022/10/06 00:38:39;;;;;;;;;1.67;1.00;;;;;;;;5073278;27;45690;-74
2022/10/06 00:41:04;;;;;;;;;1.50;0.00;;;;;;;;5089545;27;46001;-80
2022/10/06 00:43:50;;;;;;;;;3.33;1.33;;;;;;;;5084456;27;45525;-82
2022/10/06 00:46:19;;;;;;;;;2.00;2.00;;;;;;;;5091170;27;45773;-76
2022/10/06 00:48:45;;;;;;;;;0.33;0.33;;;;;;;;5093708;27;45407;-81
2022/10/06 00:51:11;;;;;;;;;0.00;0.00;;;;;;;;5089147;27;46094;-75
2022/10/06 00:53:36;;;;;;;;;3.00;0.67;;;;;;;;5069836;27;45383;-75
2022/10/06 00:56:01;;;;;;;;;1.00;1.00;;;;;;;;5079516;27;46226;-76
2022/10/06 00:58:26;;;;;;;;;2.00;1.00;;;;;;;;5084484;27;45877;-76
2022/10/06 01:00:53;;;;;;;;;1.00;1.00;;;;;;;;5082048;27;46013;-81
2022/10/06 01:03:30;;;;;;;;;2.00;1.00;;;;;;;;5086276;27;45655;-76
2022/10/06 01:05:56;;;;;;;;;1.33;1.00;;;;;;;;5091986;27;45748;-76
2022/10/06 01:08:21;;;;;;;;;1.00;1.00;;;;;;;;5095161;27;45532;-76
2022/10/06 01:10:47;;;;;;;;;2.00;1.00;;;;;;;;5092163;27;45621;-79
2022/10/06 01:13:13;;;;;;;;;1.00;0.00;;;;;;;;5080083;27;45781;-80
2022/10/06 01:15:40;;;;;;;;;3.00;0.00;;;;;;;;5081888;27;45560;-75
2022/10/06 01:18:11;;;;;;;;;3.00;1.00;;;;;;;;5079916;27;45789;-80
2022/10/06 01:20:38;;;;;;;;;5.00;3.00;;;;;;;;5060364;27;46724;-79
2022/10/06 01:23:05;;;;;;;;;5.67;1.67;;;;;;;;5091442;27;45758;-76
2022/10/06 01:25:32;;;;;;;;;2.00;1.00;;;;;;;;5094322;27;45902;-77
2022/10/06 01:27:58;;;;;;;;;3.00;0.00;;;;;;;;5094973;27;45686;-81
2022/10/06 01:30:26;;;;;;;;;5.67;1.33;;;;;;;;5071879;27;47631;-78
2022/10/06 01:32:51;;;;;;;;;1.67;1.00;;;;;;;;5072960;28;45531;-77
2022/10/06 01:35:17;;;;;;;;;4.00;0.67;;;;;;;;5090207;27;45412;-80
2022/10/06 01:37:42;;;;;;;;;1.67;1.00;;;;;;;;5094987;27;45284;-76
2022/10/06 01:40:08;;;;;;;;;3.00;1.00;;;;;;;;5095803;27;45644;-77
2022/10/06 01:42:34;;;;;;;;;2.00;0.67;;;;;;;;5091372;27;45521;-76
2022/10/06 01:45:00;;;;;;;;;4.33;2.00;;;;;;;;5099053;27;45473;-81
2022/10/06 01:47:25;;;;;;;;;1.00;1.00;;;;;;;;5085837;27;45709;-75
2022/10/06 01:49:50;;;;;;;;;5.67;2.33;;;;;;;;5077631;27;48068;-80
2022/10/06 01:52:16;;;;;;;;;6.00;1.67;;;;;;;;5076753;27;46029;-80
2022/10/06 01:54:41;;;;;;;;;1.00;0.67;;;;;;;;5094399;27;45475;-82
2022/10/06 01:57:09;;;;;;;;;3.67;1.00;;;;;;;;5075704;27;45897;-80
2022/10/06 01:59:35;;;;;;;;;1.67;0.67;;;;;;;;5088568;27;46502;-80
2022/10/06 02:02:00;;;;;;;;;4.00;2.00;;;;;;;;5090027;27;45395;-81
2022/10/06 02:04:25;;;;;;;;;2.00;2.00;;;;;;;;5091481;27;45536;-77
2022/10/06 02:06:51;;;;;;;;;2.67;1.33;;;;;;;;5089024;27;45464;-82
2022/10/06 02:09:17;;;;;;;;;3.00;1.00;;;;;;;;5089288;27;46049;-81
2022/10/06 02:11:42;;;;;;;;;3.00;0.67;;;;;;;;5085779;27;45422;-75
2022/10/06 02:14:08;;;;;;;;;3.33;1.00;;;;;;;;5073363;27;45804;-75
2022/10/06 02:16:34;;;;;;;;;2.00;1.00;;;;;;;;5079889;27;45960;-82
2022/10/06 02:19:00;;;;;;;;;0.00;0.00;;;;;;;;5090897;27;46459;-76
2022/10/06 02:21:25;;;;;;;;;0.33;0.33;;;;;;;;5084735;27;45488;-82
2022/10/06 02:23:50;;;;;;;;;4.00;1.00;;;;;;;;5082793;27;45330;-76
2022/10/06 02:26:16;;;;;;;;;3.67;1.67;;;;;;;;5090720;27;45374;-76
2022/10/06 02:28:43;;;;;;;;;5.33;1.33;;;;;;;;5072533;27;46933;-75
2022/10/06 02:31:09;;;;;;;;;0.67;0.67;;;;;;;;5093456;27;45395;-76
2022/10/06 02:33:35;;;;;;;;;5.33;0.67;;;;;;;;5069151;27;45397;-77
2022/10/06 02:36:00;;;;;;;;;0.67;0.00;;;;;;;;5091413;27;45403;-76
2022/10/06 02:38:26;;;;;;;;;3.00;2.67;;;;;;;;5068112;27;47919;-76
2022/10/06 02:40:52;;;;;;;;;6.67;1.33;;;;;;;;5088926;27;45389;-75
2022/10/06 02:43:17;;;;;;;;;1.00;1.00;;;;;;;;5074744;27;45683;-76
2022/10/06 02:45:43;;;;;;;;;6.00;2.00;;;;;;;;5074830;27;45830;-76
2022/10/06 02:48:10;;;;;;;;;2.67;0.67;;;;;;;;5092101;27;45753;-80
2022/10/06 02:50:36;;;;;;;;;2.33;1.67;;;;;;;;5074178;27;45817;-81
2022/10/06 02:53:01;;;;;;;;;4.00;1.67;;;;;;;;5074335;27;45545;-80
2022/10/06 02:55:26;;;;;;;;;7.33;1.00;;;;;;;;5075936;27;45458;-80
2022/10/06 02:57:52;;;;;;;;;4.00;1.67;;;;;;;;5078418;27;47245;-81
2022/10/06 03:00:18;;;;;;;;;3.00;0.67;;;;;;;;5077307;27;45659;-79
2022/10/06 03:02:43;;;;;;;;;4.67;1.33;;;;;;;;5077493;27;45562;-80
2022/10/06 03:05:08;;;;;;;;;1.00;0.67;;;;;;;;5077208;27;45292;-75
2022/10/06 03:07:34;;;;;;;;;3.67;2.00;;;;;;;;5094295;27;45696;-75
2022/10/06 03:09:59;;;;;;;;;1.00;1.00;;;;;;;;5071788;28;45477;-76
2022/10/06 03:12:24;;;;;;;;;5.33;1.33;;;;;;;;5091381;27;45702;-77
2022/10/06 03:14:49;;;;;;;;;6.33;2.67;;;;;;;;5092884;27;45353;-75
2022/10/06 03:17:15;;;;;;;;;2.67;1.67;;;;;;;;5060518;27;48387;-76
2022/10/06 03:19:40;;;;;;;;;3.00;2.00;;;;;;;;5092828;27;45416;-75
2022/10/06 03:22:05;;;;;;;;;4.67;1.33;;;;;;;;5087051;27;45541;-75
2022/10/06 03:24:31;;;;;;;;;2.00;1.33;;;;;;;;5074724;27;46622;-80
2022/10/06 03:26:57;;;;;;;;;2.67;1.00;;;;;;;;5076642;27;46888;-76
2022/10/06 03:29:22;;;;;;;;;6.67;3.00;;;;;;;;5092225;27;45742;-79
2022/10/06 03:31:47;;;;;;;;;3.67;1.00;;;;;;;;5077610;27;45515;-76
2022/10/06 03:34:14;;;;;;;;;4.33;2.33;;;;;;;;5082270;27;45491;-81
2022/10/06 03:36:39;;;;;;;;;5.67;1.67;;;;;;;;5057107;28;47233;-75
2022/10/06 03:39:05;;;;;;;;;1.67;1.00;;;;;;;;5054851;28;45541;-80
2022/10/06 03:41:31;;;;;;;;;3.67;1.67;;;;;;;;5074845;28;45556;-76
2022/10/06 03:43:58;;;;;;;;;4.67;1.33;;;;;;;;5061105;28;45883;-82
2022/10/06 03:46:24;;;;;;;;;1.33;0.67;;;;;;;;5043083;28;48390;-75
2022/10/06 03:48:51;;;;;;;;;4.00;3.00;;;;;;;;5053162;28;45795;-82
2022/10/06 03:51:36;;;;;;;;;1.67;0.67;;;;;;;;5068442;28;45683;-75
2022/10/06 03:54:02;;;;;;;;;5.33;2.00;;;;;;;;5061652;28;45600;-82
2022/10/06 03:56:28;;;;;;;;;6.00;2.00;;;;;;;;5038330;28;45685;-76
2022/10/06 03:58:55;;;;;;;;;2.33;2.33;;;;;;;;5056141;28;45939;-84
2022/10/06 04:01:20;;;;;;;;;7.00;2.00;;;;;;;;5073101;28;45441;-77
2022/10/06 04:03:45;;;;;;;;;3.33;0.67;;;;;;;;5071465;28;45466;-76
2022/10/06 04:06:12;;;;;;;;;3.00;0.67;;;;;;;;5073369;28;46440;-77
2022/10/06 04:08:38;;;;;;;;;4.00;2.33;;;;;;;;5074614;28;45417;-77
2022/10/06 04:11:08;;;;;;;;;6.33;2.67;;;;;;;;5062157;28;45758;-79
2022/10/06 04:13:33;;;;;;;;;3.00;1.33;;;;;;;;5062402;28;45881;-77
2022/10/06 04:16:07;;;;;;;;;4.33;2.67;;;;;;;;5058780;28;46762;-80
2022/10/06 04:18:35;;;;;;;;;3.33;1.33;;;;;;;;5062616;28;45460;-84
2022/10/06 04:21:01;;;;;;;;;5.00;4.00;;;;;;;;5077473;28;45584;-82
2022/10/06 04:23:26;;;;;;;;;4.00;2.33;;;;;;;;5082916;28;45442;-76
2022/10/06 04:25:57;;;;;;;;;2.67;2.67;;;;;;;;5072943;28;46066;-77
2022/10/06 04:28:22;;;;;;;;;1.67;1.00;;;;;;;;5066075;28;45482;-74
2022/10/06 04:31:04;;;;;;;;;7.00;3.00;;;;;;;;5070414;28;45338;-76
2022/10/06 04:33:33;;;;;;;;;5.00;3.00;;;;;;;;5061687;28;45864;-76
2022/10/06 04:35:59;;;;;;;;;4.33;2.00;;;;;;;;5053488;28;48377;-78
2022/10/06 04:38:25;;;;;;;;;3.33;1.67;;;;;;;;5065875;27;46251;-78
2022/10/06 04:40:50;;;;;;;;;5.67;4.33;;;;;;;;5064605;27;45717;-77
2022/10/06 04:43:16;;;;;;;;;4.67;0.67;;;;;;;;5063900;28;45563;-81
2022/10/06 04:45:41;;;;;;;;;3.67;3.33;;;;;;;;5060019;28;45651;-85
2022/10/06 04:48:07;;;;;;;;;2.67;0.00;;;;;;;;5059889;28;45850;-84
2022/10/06 04:50:33;;;;;;;;;8.00;3.00;;;;;;;;5066491;28;45393;-84
2022/10/06 04:52:58;;;;;;;;;5.00;2.00;;;;;;;;5078748;27;45575;-81
2022/10/06 04:55:23;;;;;;;;;5.67;2.00;;;;;;;;5059865;28;45994;-85
2022/10/06 04:57:49;;;;;;;;;2.00;0.33;;;;;;;;5062602;28;45494;-87
2022/10/06 05:00:24;;;;;;;;;7.00;3.00;;;;;;;;5073793;28;44838;-81
2022/10/06 05:02:50;;;;;;;;;4.67;1.00;;;;;;;;5063520;28;46222;-83
2022/10/06 05:05:15;;;;;;;;;3.00;2.67;;;;;;;;5061399;28;47764;-84
2022/10/06 05:07:43;;;;;;;;;6.67;2.33;;;;;;;;5068949;28;45465;-85
2022/10/06 05:10:11;;;;;;;;;2.00;1.67;;;;;;;;5067003;28;45380;-80
2022/10/06 05:12:36;;;;;;;;;7.00;4.67;;;;;;;;5062805;27;45678;-77
2022/10/06 05:15:02;;;;;;;;;8.67;4.33;;;;;;;;5060358;28;45927;-80
2022/10/06 05:17:28;;;;;;;;;5.33;4.00;;;;;;;;5071449;28;45746;-80
2022/10/06 05:19:53;;;;;;;;;6.00;4.00;;;;;;;;5065502;28;45447;-79
2022/10/06 05:22:19;;;;;;;;;2.00;1.00;;;;;;;;5074115;28;45707;-81
2022/10/06 05:24:44;;;;;;;;;3.33;2.33;;;;;;;;5076227;28;45460;-79
2022/10/06 05:27:09;;;;;;;;;7.67;4.00;;;;;;;;5067353;28;45480;-78
2022/10/06 05:29:35;;;;;;;;;2.33;2.00;;;;;;;;5071179;28;45387;-78
2022/10/06 05:32:00;;;;;;;;;5.33;2.00;;;;;;;;5063430;28;46054;-75
2022/10/06 05:34:27;;;;;;;;;5.00;1.00;;;;;;;;5060292;28;45746;-83
2022/10/06 05:36:53;;;;;;;;;5.33;2.33;;;;;;;;5064733;28;45405;-81
2022/10/06 05:39:21;;;;;;;;;5.00;2.00;;;;;;;;5067778;28;46006;-81
2022/10/06 05:41:50;;;;;;;;;2.67;1.67;;;;;;;;5063901;28;45742;-78
2022/10/06 05:44:21;;;;;;;;;5.00;2.33;;;;;;;;5052618;28;46779;-82
2022/10/06 05:46:53;;;;;;;;;4.33;2.33;;;;;;;;5066860;28;45705;-82
2022/10/06 05:49:22;;;;;;;;;3.00;3.00;;;;;;;;5061640;28;45553;-83
2022/10/06 05:52:07;;;;;;;;;1.67;1.67;;;;;;;;5064118;27;45870;-79
2022/10/06 05:54:47;;;;;;;;;5.00;3.67;;;;;;;;5054972;28;46015;-79
2022/10/06 05:57:24;;;;;;;;;3.00;2.33;;;;;;;;5066326;28;45715;-83
2022/10/06 06:00:05;;;;;;;;;;;;;;;;;;;;;
2022/10/06 06:06:08;;;;;;;;;4.33;3.00;;;;;;;;5004289;28;45801;-81
2022/10/06 06:09:27;;;;;;;;;;;;;;;;;;;;;
2022/10/06 06:12:06;;;;;;;;;5.00;3.00;;;;;;;;5019625;27;66967;-85
2022/10/06 06:17:20;;;;;;;;;4.33;4.00;;;;;;;;5028827;28;46078;-75
2022/10/06 06:19:45;;;;;;;;;5.00;4.00;;;;;;;;5061829;27;45668;-81
2022/10/06 06:22:11;;;;;;;;;5.67;3.00;;;;;;;;5064712;27;45990;-79
2022/10/06 06:24:36;;;;;;;;;6.67;3.67;;;;;;;;5045749;28;47168;-73
2022/10/06 06:27:01;;;;;;;;;6.33;3.00;;;;;;;;5037604;28;47627;-76
2022/10/06 06:29:27;;;;;;;;;7.67;3.33;;;;;;;;5043410;28;45649;-74
2022/10/06 06:31:52;;;;;;;;;4.00;2.67;;;;;;;;5065365;27;45545;-79
2022/10/06 06:34:17;;;;;;;;;5.33;2.67;;;;;;;;5056216;27;45795;-79
2022/10/06 06:36:44;;;;;;;;;6.67;3.00;;;;;;;;5068522;27;46081;-82
2022/10/06 06:39:18;;;;;;;;;3.67;3.67;;;;;;;;5078315;27;45694;-83
2022/10/06 06:41:46;;;;;;;;;8.33;4.00;;;;;;;;5069922;28;45353;-74
2022/10/06 06:44:12;;;;;;;;;9.33;2.67;;;;;;;;5061364;27;45980;-77
2022/10/06 06:46:38;;;;;;;;;4.33;2.67;;;;;;;;5061976;28;45482;-78
2022/10/06 06:49:04;;;;;;;;;9.33;3.00;;;;;;;;5067656;27;45790;-80
2022/10/06 06:51:34;;;;;;;;;6.33;3.00;;;;;;;;5059939;27;45785;-76
2022/10/06 06:54:01;;;;;;;;;4.33;2.67;;;;;;;;5060971;27;46068;-78
2022/10/06 06:56:27;;;;;;;;;4.67;2.33;;;;;;;;5058147;27;45929;-81
2022/10/06 06:58:52;;;;;;;;;4.67;1.00;;;;;;;;5062682;28;45714;-82
2022/10/06 07:01:18;;;;;;;;;6.67;2.67;;;;;;;;5063955;28;45534;-76
2022/10/06 07:03:54;;;;;;;;;8.00;3.00;;;;;;;;5074736;27;46067;-83
2022/10/06 07:06:20;;;;;;;;;4.33;3.00;;;;;;;;5077442;27;45993;-77
2022/10/06 07:08:46;;;;;;;;;4.00;1.00;;;;;;;;5070304;27;45452;-78
2022/10/06 07:11:37;;;;;;;;;2.00;1.00;;;;;;;;5073673;27;45845;-82
2022/10/06 07:14:07;;;;;;;;;5.00;3.00;;;;;;;;5052507;28;45982;-81
2022/10/06 07:28:52;;;;;;;;;4.00;3.00;;;;;;;;4951118;28;46319;-82
2022/10/06 07:34:36;;;;;;;;;4.00;2.67;;;;;;;;5043373;28;45515;-78
2022/10/06 07:37:01;;;;;;;;;5.33;2.00;;;;;;;;5080957;27;45475;-83
2022/10/06 07:39:27;;;;;;;;;8.33;3.33;;;;;;;;5082077;27;46055;-78
2022/10/06 07:41:52;;;;;;;;;5.00;5.00;;;;;;;;5091823;27;45839;-80
2022/10/06 07:44:17;;;;;;;;;4.33;2.67;;;;;;;;5091540;27;45571;-77
2022/10/06 07:46:42;;;;;;;;;5.67;4.33;;;;;;;;5094777;27;46440;-78
2022/10/06 07:49:08;;;;;;;;;5.33;2.33;;;;;;;;5086880;27;46515;-76
2022/10/06 07:51:33;;;;;;;;;3.67;2.00;;;;;;;;5093611;27;46842;-78
2022/10/06 07:54:00;;;;;;;;;8.00;3.00;;;;;;;;5067857;27;45609;-78
2022/10/06 07:56:25;;;;;;;;;5.00;2.00;;;;;;;;5082217;27;46013;-84
2022/10/06 07:58:50;;;;;;;;;7.00;2.00;;;;;;;;5086830;27;46597;-79
2022/10/06 08:01:17;;;;;;;;;4.33;1.00;;;;;;;;5084553;27;45791;-77
2022/10/06 08:03:44;;;;;;;;;4.00;2.33;;;;;;;;5089986;27;45866;-85
2022/10/06 08:06:14;;;;;;;;;4.00;2.33;;;;;;;;5082932;27;45624;-81
2022/10/06 08:08:40;;;;;;;;;6.00;5.00;;;;;;;;5085288;27;48600;-84
2022/10/06 08:11:06;;;;;;;;;9.67;3.67;;;;;;;;5072130;27;45872;-78
2022/10/06 08:13:33;;;;;;;;;5.33;3.00;;;;;;;;5080912;27;45620;-77
2022/10/06 08:16:09;;;;;;;;;3.00;1.67;;;;;;;;5087663;27;45557;-82
2022/10/06 08:18:37;;;;;;;;;4.67;3.00;;;;;;;;5071214;27;48194;-77
2022/10/06 08:21:13;;;;;;;;;3.00;3.00;;;;;;;;5066457;27;46227;-82
2022/10/06 08:23:41;;;;;;;;;7.33;6.00;;;;;;;;5081070;27;45492;-77
2022/10/06 08:26:06;;;;;;;;;6.00;3.00;;;;;;;;5067279;27;46181;-76
2022/10/06 08:28:32;;;;;;;;;16.33;16.33;;;;;;;;5068637;27;46785;-81
2022/10/06 08:31:01;;;;;;;;;37.33;32.67;;;;;;;;5072873;27;45821;-75
2022/10/06 08:33:27;;;;;;;;;14.67;9.00;;;;;;;;5074444;27;45610;-77
2022/10/06 08:35:52;;;;;;;;;20.00;15.33;;;;;;;;5080696;27;45706;-83
2022/10/06 08:38:18;;;;;;;;;7.25;4.00;;;;;;;;5069209;28;45648;-78
2022/10/06 08:40:46;;;;;;;;;7.00;4.67;;;;;;;;5047349;28;45426;-84
2022/10/06 08:43:15;;;;;;;;;5.67;4.33;;;;;;;;5078308;27;45548;-81
2022/10/06 08:45:45;;;;;;;;;3.00;3.00;;;;;;;;5054622;28;47434;-85
2022/10/06 08:48:15;;;;;;;;;5.67;4.33;;;;;;;;5061733;28;46388;-79
2022/10/06 08:50:51;;;;;;;;;8.67;5.67;;;;;;;;5064811;27;45439;-82
2022/10/06 08:53:25;;;;;;;;;7.67;5.67;;;;;;;;5057977;28;45816;-77
2022/10/06 08:55:56;;;;;;;;;8.33;7.33;;;;;;;;5067407;28;45795;-78
2022/10/06 08:58:29;;;;;;;;;8.00;2.50;;;;;;;;5072689;28;45683;-83
2022/10/06 09:00:59;;;;;;;;;5.67;4.67;;;;;;;;5058860;28;45859;-81
2022/10/06 09:03:32;;;;;;;;;6.00;5.00;;;;;;;;5074885;27;45762;-80
2022/10/06 09:06:05;;;;;;;;;8.67;3.67;;;;;;;;5055018;28;46023;-83
2022/10/06 09:08:53;;;;;;;;;7.33;5.33;;;;;;;;5067974;28;46117;-78
2022/10/06 09:11:37;;;;;;;;;9.33;5.33;;;;;;;;5037149;28;45922;-77
2022/10/06 09:14:12;;;;;;;;;8.75;5.00;;;;;;;;5043196;28;45763;-77
2022/10/06 09:16:40;;;;;;;;;10.25;4.50;;;;;;;;5069163;27;45538;-78
2022/10/06 09:19:08;;;;;;;;;8.25;3.00;;;;;;;;5067668;27;45494;-84
2022/10/06 09:21:44;;;;;;;;;5.00;2.00;;;;;;;;5080533;27;45805;-82
2022/10/06 09:24:12;;;;;;;;;3.25;3.25;;;;;;;;5052638;28;45482;-82
2022/10/06 09:26:42;;;;;;;;;6.50;3.50;;;;;;;;5057824;28;45470;-82
2022/10/06 09:29:07;;;;;;;;;7.25;4.00;;;;;;;;5071206;27;45615;-86
2022/10/06 09:31:36;;;;;;;;;27.75;18.25;;;;;;;;5076656;28;45729;-82
2022/10/06 09:34:11;;;;;;;;;6.00;4.75;;;;;;;;5074141;27;45654;-83
2022/10/06 09:36:59;;;;;;;;;3.75;3.00;;;;;;;;5071014;28;45516;-84
2022/10/06 09:39:28;;;;;;;;;5.00;3.25;;;;;;;;5081271;27;45716;-80
2022/10/06 09:41:54;;;;;;;;;11.60;6.80;;;;;;;;5076757;28;45770;-83
2022/10/06 09:44:25;;;;;;;;;3.50;2.25;;;;;;;;5075277;28;45841;-83
2022/10/06 09:46:56;;;;;;;;;10.50;7.00;;;;;;;;5075922;27;45625;-83
2022/10/06 09:49:22;;;;;;;;;4.25;3.00;;;;;;;;5073654;28;45937;-82
2022/10/06 09:51:54;;;;;;;;;4.20;2.40;;;;;;;;5074357;28;45804;-78
2022/10/06 09:54:19;;;;;;;;;4.50;4.00;;;;;;;;5068226;28;45723;-76
2022/10/06 09:56:46;;;;;;;;;3.25;1.50;;;;;;;;5048209;28;47121;-78
2022/10/06 09:59:21;;;;;;;;;4.50;2.50;;;;;;;;5067130;28;46309;-77
2022/10/06 10:01:54;;;;;;;;;5.80;4.80;;;;;;;;5052734;28;45872;-79
2022/10/06 10:04:22;;;;;;;;;3.60;1.60;;;;;;;;5053108;28;46081;-78
2022/10/06 10:06:50;;;;;;;;;3.25;2.50;;;;;;;;5062773;27;45607;-81
2022/10/06 10:09:23;;;;;;;;;2.50;2.50;;;;;;;;5067725;28;45826;-81
2022/10/06 10:12:28;;;;;;;;;5.80;2.40;;;;;;;;5072848;27;45594;-82
2022/10/06 10:15:00;;;;;;;;;1.40;1.40;;;;;;;;5063058;28;45482;-80
2022/10/06 10:17:31;;;;;;;;;9.50;4.25;;;;;;;;5049318;28;45675;-80
2022/10/06 10:19:57;;;;;;;;;1.75;1.50;;;;;;;;5071918;28;45457;-84
2022/10/06 10:22:24;;;;;;;;;2.00;2.00;;;;;;;;5065493;27;45765;-82
2022/10/06 10:24:57;;;;;;;;;6.25;4.00;;;;;;;;5053958;27;45520;-83
2022/10/06 10:27:36;;;;;;;;;3.50;1.75;;;;;;;;5068809;28;45744;-83
2022/10/06 10:30:06;;;;;;;;;4.40;2.40;;;;;;;;5080299;27;46648;-78
2022/10/06 10:32:41;;;;;;;;;2.80;2.80;;;;;;;;5044145;28;45448;-83
2022/10/06 10:35:45;;;;;;;;;4.50;1.00;;;;;;;;5066531;28;45678;-79
2022/10/06 10:38:17;;;;;;;;;0.75;0.75;;;;;;;;4990504;28;45760;-84
2022/10/06 10:40:46;;;;;;;;;4.25;2.00;;;;;;;;4971352;28;46846;-78
2022/10/06 10:43:24;;;;;;;;;5.40;1.20;;;;;;;;5033390;27;45471;-78
2022/10/06 10:46:12;;;;;;;;;3.40;1.00;;;;;;;;5065745;28;45530;-81
2022/10/06 10:48:43;;;;;;;;;4.75;2.00;;;;;;;;5041287;28;45427;-80
2022/10/06 10:51:20;;;;;;;;;4.40;2.00;;;;;;;;5046277;28;46279;-77
2022/10/06 10:53:48;;;;;;;;;2.00;1.00;;;;;;;;5048597;28;45746;-75
2022/10/06 10:59:54;;;;;;;;;1.00;1.00;;;;;;;;5063230;28;45368;-82
2022/10/06 11:02:25;;;;;;;;;1.00;0.25;;;;;;;;5070641;27;45852;-82
2022/10/06 11:05:05;;;;;;;;;3.80;2.40;;;;;;;;5060659;28;45412;-72
2022/10/06 11:08:11;;;;;;;;;;;;;;;;;;;;;
2022/10/06 11:11:11;;;;;;;;;;;;;;;;;;;;;
2022/10/06 11:14:02;;;;;;;;;2.00;1.00;;;;;;;;4862675;28;74650;-80
2022/10/06 11:17:08;;;;;;;;;0.00;0.00;;;;;;;;4933407;28;45608;-79
2022/10/06 11:20:18;;;;;;;;;0.25;0.00;;;;;;;;4930456;28;45700;-79
2022/10/06 11:23:05;;;;;;;;;1.25;1.00;;;;;;;;4881134;29;45516;-79
2022/10/06 11:26:05;;;;;;;;;6.00;1.25;;;;;;;;4876111;28;46953;-80
2022/10/06 11:29:11;;;;;;;;;2.50;0.75;;;;;;;;4954055;28;45463;-77
2022/10/06 11:35:26;;;;;;;;;;;;;;;;;;;;;
2022/10/06 11:44:09;;;;;;;;;0.25;0.25;;;;;;;;5064600;28;45798;-77
2022/10/06 11:46:37;;;;;;;;;2.75;1.00;;;;;;;;5065082;28;45975;-80
2022/10/06 11:49:21;;;;;;;;;1.50;1.00;;;;;;;;5044528;28;46973;-76
2022/10/06 11:51:46;;;;;;;;;0.75;0.50;;;;;;;;5061090;28;45741;-76
2022/10/06 11:54:33;;;;;;;;;2.75;1.00;;;;;;;;5062183;27;46247;-78
2022/10/06 11:57:22;;;;;;;;;1.50;1.50;;;;;;;;5057698;28;45507;-77
2022/10/06 11:59:55;;;;;;;;;3.50;1.50;;;;;;;;5075899;27;45687;-80
2022/10/06 12:02:42;;;;;;;;;4.00;2.25;;;;;;;;5048218;28;45890;-79
2022/10/06 12:05:18;;;;;;;;;3.25;1.00;;;;;;;;5059521;28;45723;-82
2022/10/06 12:08:15;;;;;;;;;3.00;1.00;;;;;;;;5078454;28;45591;-82
2022/10/06 12:17:07;;;;;;;;;1.00;0.50;;;;;;;;4969554;28;45568;-80
2022/10/06 12:48:53;;;;;;;;;;;;;;;;;;;;;
2022/10/06 12:51:33;;;;;;;;;1.25;1.00;;;;;;;;4910021;28;72129;-78
2022/10/06 12:54:10;;;;;;;;;4.00;1.00;;;;;;;;4993353;28;45899;-79
2022/10/06 13:00:08;;;;;;;;;1.00;1.00;;;;;;;;5012569;28;45564;-80
2022/10/06 13:05:58;;;;;;;;;4.00;1.50;;;;;;;;5012604;28;46004;-83
2022/10/06 13:08:56;;;;;;;;;4.00;0.25;;;;;;;;5014158;28;45809;-79
2022/10/06 13:14:47;;;;;;;;;4.00;1.00;;;;;;;;4987300;28;46074;-80
2022/10/06 13:18:04;;;;;;;;;;;;;;;;;;;;;
2022/10/06 13:23:48;;;;;;;;;1.00;1.00;;;;;;;;5015332;28;45940;-81
2022/10/06 13:30:20;;;;;;;;;2.00;0.50;;;;;;;;4956424;28;46100;-83
2022/10/06 13:36:40;;;;;;;;;1.50;1.25;;;;;;;;4949577;28;46077;-81
2022/10/06 13:39:24;;;;;;;;;2.25;2.00;;;;;;;;5017374;28;45568;-87
2022/10/06 13:41:52;;;;;;;;;3.25;0.25;;;;;;;;5092447;27;45502;-79
2022/10/06 13:47:59;;;;;;;;;0.75;0.75;;;;;;;;5033571;28;45676;-79
2022/10/06 13:54:05;;;;;;;;;2.00;0.25;;;;;;;;5026007;28;45743;-83
2022/10/06 13:56:34;;;;;;;;;1.25;1.00;;;;;;;;5017543;28;45895;-82
2022/10/06 14:02:39;;;;;;;;;1.75;1.00;;;;;;;;5097105;27;45852;-84
2022/10/06 14:05:28;;;;;;;;;1.00;1.00;;;;;;;;5074367;27;45439;-81
2022/10/06 14:18:07;;;;;;;;;1.25;1.00;;;;;;;;4936279;28;44876;-80
2022/10/06 14:27:11;;;;;;;;;;;;;;;;;;;;;
2022/10/06 14:39:47;;;;;;;;;2.00;1.00;;;;;;;;4978005;28;45503;-85
2022/10/06 14:42:25;;;;;;;;;0.75;0.75;;;;;;;;5044827;28;45826;-85
2022/10/06 14:44:54;;;;;;;;;0.25;0.00;;;;;;;;5063429;28;46021;-85
2022/10/06 14:47:20;;;;;;;;;1.00;0.25;;;;;;;;5056620;27;45576;-82
2022/10/06 14:49:49;;;;;;;;;0.75;0.75;;;;;;;;5057557;27;45486;-80
2022/10/06 14:56:01;;;;;;;;;0.25;0.00;;;;;;;;5019590;28;45925;-80
2022/10/06 14:58:42;;;;;;;;;1.00;1.00;;;;;;;;5013980;28;45457;-81
2022/10/06 15:10:56;;;;;;;;;4.00;0.50;;;;;;;;5051747;27;44869;-83
2022/10/06 15:13:53;;;;;;;;;3.25;0.50;;;;;;;;5042805;28;45713;-83
2022/10/06 15:16:53;;;;;;;;;0.50;0.00;;;;;;;;5064081;27;45573;-80
2022/10/06 15:19:47;;;;;;;;;3.50;0.75;;;;;;;;5070215;28;45899;-81
2022/10/06 15:22:34;;;;;;;;;1.00;0.00;;;;;;;;5056948;27;48172;-80
2022/10/06 15:31:26;;;;;;;;;2.25;0.00;;;;;;;;5003992;28;45515;-81
2022/10/06 15:34:28;;;;;;;;;9.00;6.33;;;;;;;;4998211;28;45641;-80
2022/10/06 15:40:26;;;;;;;;;0.50;0.00;;;;;;;;5036238;27;45482;-83
2022/10/06 15:45:55;;;;;;;;;0.50;0.50;;;;;;;;5012873;28;45808;-82
2022/10/06 15:55:34;;;;;;;;;4.50;2.75;;;;;;;;4989557;28;45608;-83
2022/10/06 16:07:33;;;;;;;;;0.25;0.00;;;;;;;;4947946;28;45775;-80
2022/10/06 16:09:59;;;;;;;;;2.00;1.00;;;;;;;;4966447;28;47919;-78
2022/10/06 16:12:27;;;;;;;;;2.25;1.75;;;;;;;;5018865;27;45452;-78
2022/10/06 16:14:52;;;;;;;;;3.00;1.00;;;;;;;;5081437;27;45611;-83
2022/10/06 16:17:17;;;;;;;;;2.50;0.75;;;;;;;;5095726;27;45443;-80
2022/10/06 16:19:43;;;;;;;;;4.00;3.00;;;;;;;;5078171;27;46299;-82
2022/10/06 16:22:10;;;;;;;;;5.00;2.75;;;;;;;;5100013;27;45365;-82
2022/10/06 16:24:36;;;;;;;;;2.50;1.00;;;;;;;;5098637;27;45739;-83
2022/10/06 16:27:01;;;;;;;;;1.75;1.50;;;;;;;;5096967;27;45832;-85
2022/10/06 16:29:27;;;;;;;;;1.00;1.00;;;;;;;;5077313;27;47118;-82
2022/10/06 16:31:52;;;;;;;;;0.75;0.75;;;;;;;;5095643;27;45502;-84
2022/10/06 16:34:18;;;;;;;;;5.67;5.00;;;;;;;;5091049;27;45307;-83
2022/10/06 16:37:06;;;;;;;;;8.00;7.00;;;;;;;;5088498;27;45441;-83
2022/10/06 16:39:38;;;;;;;;;24.33;19.67;;;;;;;;5081030;27;45812;-81
2022/10/06 16:42:20;;;;;;;;;1.75;1.25;;;;;;;;5077524;27;45501;-83
2022/10/06 16:44:47;;;;;;;;;2.25;1.50;;;;;;;;5087271;27;45713;-81
2022/10/06 16:47:12;;;;;;;;;2.00;1.00;;;;;;;;5057666;27;45690;-80
2022/10/06 16:52:41;;;;;;;;;3.50;1.00;;;;;;;;5084462;27;45536;-81
2022/10/06 16:55:17;;;;;;;;;2.00;2.00;;;;;;;;5082345;27;45694;-80
2022/10/06 16:57:43;;;;;;;;;2.50;1.75;;;;;;;;5083484;27;45825;-80
2022/10/06 17:00:09;;;;;;;;;3.00;2.50;;;;;;;;5078536;27;47569;-80
2022/10/06 17:02:39;;;;;;;;;1.00;1.00;;;;;;;;5090699;27;45426;-80
2022/10/06 17:11:52;;;;;;;;;9.33;6.00;;;;;;;;5031374;28;46133;-81
2022/10/06 17:14:21;;;;;;;;;5.25;4.75;;;;;;;;5027361;28;45553;-86
2022/10/06 17:16:50;;;;;;;;;5.00;2.00;;;;;;;;5063723;27;45579;-82
2022/10/06 17:19:17;;;;;;;;;2.00;2.00;;;;;;;;5071158;27;46044;-82
2022/10/06 17:24:31;;;;;;;;;3.25;1.00;;;;;;;;5096102;27;45800;-80
2022/10/06 17:26:57;;;;;;;;;2.50;1.00;;;;;;;;5095726;27;45806;-80
2022/10/06 17:29:24;;;;;;;;;2.00;1.00;;;;;;;;5077139;27;45663;-82
2022/10/06 17:31:54;;;;;;;;;1.75;1.00;;;;;;;;5076797;27;47566;-82
2022/10/06 17:34:26;;;;;;;;;2.25;1.75;;;;;;;;5096899;27;45880;-82
2022/10/06 17:36:51;;;;;;;;;7.25;2.00;;;;;;;;5090420;27;46069;-82
2022/10/06 17:39:21;;;;;;;;;3.00;1.33;;;;;;;;5079358;27;46060;-80
2022/10/06 17:41:48;;;;;;;;;2.25;1.00;;;;;;;;5090997;27;45845;-84
2022/10/06 17:44:19;;;;;;;;;3.67;3.67;;;;;;;;5089306;27;45218;-84
2022/10/06 17:46:45;;;;;;;;;4.67;3.00;;;;;;;;5097179;27;46125;-85
2022/10/06 17:49:11;;;;;;;;;4.00;2.75;;;;;;;;5079368;27;45706;-82
2022/10/06 17:58:17;;;;;;;;;4.00;3.33;;;;;;;;5097747;27;45514;-83
2022/10/06 18:01:08;;;;;;;;;4.00;3.00;;;;;;;;5075920;27;45815;-84
2022/10/06 18:06:51;;;;;;;;;3.67;2.67;;;;;;;;4994700;28;45467;-83
2022/10/06 18:09:17;;;;;;;;;5.33;3.00;;;;;;;;4996655;28;45924;-81
2022/10/06 18:12:13;;;;;;;;;;;;;;;;;;;;;
2022/10/06 18:15:04;;;;;;;;;10.67;10.00;;;;;;;;5024207;28;74685;-82
2022/10/06 18:18:23;;;;;;;;;8.67;4.33;;;;;;;;5011814;28;45787;-81
2022/10/06 18:21:17;;;;;;;;;7.33;5.00;;;;;;;;5032413;28;45375;-83
2022/10/06 18:24:00;;;;;;;;;8.33;4.33;;;;;;;;4987758;28;46803;-80
2022/10/06 18:26:26;;;;;;;;;6.33;5.67;;;;;;;;5029798;28;45647;-82
2022/10/06 18:29:03;;;;;;;;;8.67;7.00;;;;;;;;5009893;28;45813;-81